sensor_id;sensor_type;location;lat;lon;timestamp;pressure;altitude;pressure_sealevel;temperature;humidity
9139;BME280;4604;48.616;9.548;2022-12-07T00:00:53;96944.84;;;3.43;100.00
9139;BME280;4604;48.616;9.548;2022-12-07T00:03:20;96942.97;;;3.46;100.00
9139;BME280;4604;48.616;9.548;2022-12-07T00:05:49;96937.47;;;3.50;100.00
9139;BME280;4604;48.616;9.548;2022-12-07T00:08:16;96941.59;;;3.54;100.00
9139;BME280;4604;48.616;9.548;2022-12-07T00:10:43;96940.84;;;3.52;100.00
9139;BME280;4604;48.616;9.548;2022-12-07T00:13:09;96934.03;;;3.50;100.00
9139;BME280;4604;48.616;9.548;2022-12-07T00:15:38;96933.19;;;3.49;100.00
9139;BME280;4604;48.616;9.548;2022-12-07T00:18:04;96935.81;;;3.49;100.00
9139;BME280;4604;48.616;9.548;2022-12-07T00:20:31;96929.00;;;3.47;100.00
9139;BME280;4604;48.616;9.548;2022-12-07T00:22:58;96938.59;;;3.46;100.00
9139;BME280;4604;48.616;9.548;2022-12-07T00:25:25;96943.38;;;3.39;100.00
9139;BME280;4604;48.616;9.548;2022-12-07T00:27:52;96925.94;;;3.26;100.00
9139;BME280;4604;48.616;9.548;2022-12-07T00:30:21;96932.38;;;3.20;100.00
9139;BME280;4604;48.616;9.548;2022-12-07T00:32:49;96943.94;;;3.16;100.00
9139;BME280;4604;48.616;9.548;2022-12-07T00:35:16;96943.19;;;3.14;100.00
9139;BME280;4604;48.616;9.548;2022-12-07T00:37:42;96932.09;;;3.10;100.00
9139;BME280;4604;48.616;9.548;2022-12-07T00:40:10;96937.75;;;3.17;100.00
9139;BME280;4604;48.616;9.548;2022-12-07T00:42:37;96935.28;;;3.15;100.00
9139;BME280;4604;48.616;9.548;2022-12-07T00:45:04;96935.75;;;3.08;100.00
9139;BME280;4604;48.616;9.548;2022-12-07T00:47:31;96935.19;;;3.03;100.00
9139;BME280;4604;48.616;9.548;2022-12-07T00:49:59;96905.38;;;2.92;100.00
9139;BME280;4604;48.616;9.548;2022-12-07T00:52:26;96933.50;;;3.02;100.00
9139;BME280;4604;48.616;9.548;2022-12-07T00:54:53;96926.97;;;2.94;100.00
9139;BME280;4604;48.616;9.548;2022-12-07T00:57:19;96914.75;;;2.95;100.00
9139;BME280;4604;48.616;9.548;2022-12-07T00:59:48;96921.00;;;2.92;100.00
9139;BME280;4604;48.616;9.548;2022-12-07T01:02:15;96919.34;;;2.91;100.00
9139;BME280;4604;48.616;9.548;2022-12-07T01:04:42;96929.28;;;2.99;100.00
9139;BME280;4604;48.616;9.548;2022-12-07T01:07:10;96930.25;;;2.98;100.00
9139;BME280;4604;48.616;9.548;2022-12-07T01:09:37;96922.44;;;2.98;100.00
9139;BME280;4604;48.616;9.548;2022-12-07T01:12:04;96924.16;;;2.97;100.00
9139;BME280;4604;48.616;9.548;2022-12-07T01:14:31;96929.69;;;2.93;100.00
9139;BME280;4604;48.616;9.548;2022-12-07T01:16:57;96919.16;;;2.94;100.00
9139;BME280;4604;48.616;9.548;2022-12-07T01:19:24;96924.00;;;2.86;100.00
9139;BME280;4604;48.616;9.548;2022-12-07T01:21:51;96925.19;;;2.95;100.00
9139;BME280;4604;48.616;9.548;2022-12-07T01:24:19;96932.06;;;2.82;100.00
9139;BME280;4604;48.616;9.548;2022-12-07T01:26:48;96926.38;;;2.75;100.00
9139;BME280;4604;48.616;9.548;2022-12-07T01:29:15;96924.81;;;2.87;100.00
9139;BME280;4604;48.616;9.548;2022-12-07T01:31:42;96923.97;;;2.72;100.00
9139;BME280;4604;48.616;9.548;2022-12-07T01:34:09;96938.13;;;2.82;100.00
9139;BME280;4604;48.616;9.548;2022-12-07T01:36:36;96939.16;;;2.79;100.00
9139;BME280;4604;48.616;9.548;2022-12-07T01:39:06;96949.50;;;2.81;100.00
9139;BME280;4604;48.616;9.548;2022-12-07T01:41:37;96947.25;;;2.89;100.00
9139;BME280;4604;48.616;9.548;2022-12-07T01:44:17;96946.13;;;2.79;100.00
9139;BME280;4604;48.616;9.548;2022-12-07T01:46:45;96930.66;;;2.62;100.00
9139;BME280;4604;48.616;9.548;2022-12-07T01:49:17;96918.34;;;2.49;100.00
9139;BME280;4604;48.616;9.548;2022-12-07T01:51:46;96910.28;;;2.54;100.00
9139;BME280;4604;48.616;9.548;2022-12-07T01:54:15;96943.22;;;2.69;100.00
9139;BME280;4604;48.616;9.548;2022-12-07T01:56:47;96928.88;;;2.62;100.00
9139;BME280;4604;48.616;9.548;2022-12-07T01:59:15;96942.41;;;2.69;100.00
9139;BME280;4604;48.616;9.548;2022-12-07T02:01:42;96942.66;;;2.64;100.00
9139;BME280;4604;48.616;9.548;2022-12-07T02:04:11;96947.13;;;2.62;100.00
9139;BME280;4604;48.616;9.548;2022-12-07T02:06:38;96944.44;;;2.64;100.00
9139;BME280;4604;48.616;9.548;2022-12-07T02:09:07;96948.72;;;2.65;100.00
9139;BME280;4604;48.616;9.548;2022-12-07T02:11:33;96951.63;;;2.74;100.00
9139;BME280;4604;48.616;9.548;2022-12-07T02:14:02;96947.41;;;2.72;100.00
9139;BME280;4604;48.616;9.548;2022-12-07T02:16:34;96943.16;;;2.71;100.00
9139;BME280;4604;48.616;9.548;2022-12-07T02:19:21;96952.56;;;2.73;100.00
9139;BME280;4604;48.616;9.548;2022-12-07T02:21:53;96940.13;;;2.63;100.00
9139;BME280;4604;48.616;9.548;2022-12-07T02:24:35;96949.53;;;2.65;100.00
9139;BME280;4604;48.616;9.548;2022-12-07T02:27:28;96935.41;;;2.69;100.00
9139;BME280;4604;48.616;9.548;2022-12-07T02:30:04;96956.56;;;2.79;100.00
9139;BME280;4604;48.616;9.548;2022-12-07T02:32:40;96945.31;;;2.78;100.00
9139;BME280;4604;48.616;9.548;2022-12-07T02:35:12;96943.97;;;2.71;100.00
9139;BME280;4604;48.616;9.548;2022-12-07T02:37:49;96943.91;;;2.87;100.00
9139;BME280;4604;48.616;9.548;2022-12-07T02:40:22;96942.44;;;2.83;100.00
9139;BME280;4604;48.616;9.548;2022-12-07T02:42:56;96950.50;;;2.78;100.00
9139;BME280;4604;48.616;9.548;2022-12-07T02:45:28;96944.19;;;2.68;100.00
9139;BME280;4604;48.616;9.548;2022-12-07T02:47:58;96945.34;;;2.63;100.00
9139;BME280;4604;48.616;9.548;2022-12-07T02:50:26;96944.47;;;2.78;100.00
9139;BME280;4604;48.616;9.548;2022-12-07T02:52:54;96944.81;;;2.72;100.00
9139;BME280;4604;48.616;9.548;2022-12-07T02:55:26;96936.06;;;2.73;100.00
9139;BME280;4604;48.616;9.548;2022-12-07T02:58:10;96942.03;;;2.75;100.00
9139;BME280;4604;48.616;9.548;2022-12-07T03:00:50;96939.91;;;2.82;100.00
9139;BME280;4604;48.616;9.548;2022-12-07T03:03:19;96939.06;;;2.81;100.00
9139;BME280;4604;48.616;9.548;2022-12-07T03:06:06;96934.13;;;2.76;100.00
9139;BME280;4604;48.616;9.548;2022-12-07T03:08:46;96905.63;;;2.59;100.00
9139;BME280;4604;48.616;9.548;2022-12-07T03:11:17;96935.53;;;2.82;100.00
9139;BME280;4604;48.616;9.548;2022-12-07T03:13:50;96930.97;;;2.86;100.00
9139;BME280;4604;48.616;9.548;2022-12-07T03:16:24;96922.97;;;2.89;100.00
9139;BME280;4604;48.616;9.548;2022-12-07T03:18:55;96909.47;;;2.82;100.00
9139;BME280;4604;48.616;9.548;2022-12-07T03:21:26;96923.59;;;2.92;100.00
9139;BME280;4604;48.616;9.548;2022-12-07T03:23:56;96915.06;;;2.90;100.00
9139;BME280;4604;48.616;9.548;2022-12-07T03:26:32;96912.06;;;2.96;100.00
9139;BME280;4604;48.616;9.548;2022-12-07T03:29:06;96927.53;;;2.99;100.00
9139;BME280;4604;48.616;9.548;2022-12-07T03:31:41;96934.59;;;2.97;100.00
9139;BME280;4604;48.616;9.548;2022-12-07T03:34:14;96932.94;;;2.96;100.00
9139;BME280;4604;48.616;9.548;2022-12-07T03:36:47;96926.13;;;2.94;100.00
9139;BME280;4604;48.616;9.548;2022-12-07T03:39:22;96932.94;;;2.96;100.00
9139;BME280;4604;48.616;9.548;2022-12-07T03:41:51;96919.34;;;2.91;100.00
9139;BME280;4604;48.616;9.548;2022-12-07T03:44:19;96913.38;;;2.89;100.00
9139;BME280;4604;48.616;9.548;2022-12-07T03:47:01;96865.59;;;2.60;100.00
9139;BME280;4604;48.616;9.548;2022-12-07T03:49:34;96918.78;;;3.00;100.00
9139;BME280;4604;48.616;9.548;2022-12-07T03:52:09;96906.22;;;2.93;100.00
9139;BME280;4604;48.616;9.548;2022-12-07T03:54:41;96923.16;;;3.00;100.00
9139;BME280;4604;48.616;9.548;2022-12-07T03:57:16;96929.09;;;3.02;100.00
9139;BME280;4604;48.616;9.548;2022-12-07T03:59:44;96928.28;;;3.02;100.00
9139;BME280;4604;48.616;9.548;2022-12-07T04:02:13;96927.25;;;3.04;100.00
9139;BME280;4604;48.616;9.548;2022-12-07T04:04:40;96912.16;;;2.95;100.00
9139;BME280;4604;48.616;9.548;2022-12-07T04:07:08;96924.84;;;3.01;100.00
9139;BME280;4604;48.616;9.548;2022-12-07T04:09:36;96914.22;;;3.04;100.00
9139;BME280;4604;48.616;9.548;2022-12-07T04:12:03;96925.47;;;3.05;100.00
9139;BME280;4604;48.616;9.548;2022-12-07T04:14:30;96905.00;;;2.98;100.00
9139;BME280;4604;48.616;9.548;2022-12-07T04:16:58;96917.75;;;3.03;100.00
9139;BME280;4604;48.616;9.548;2022-12-07T04:19:27;96885.91;;;2.84;100.00
9139;BME280;4604;48.616;9.548;2022-12-07T04:21:55;96910.22;;;2.98;100.00
9139;BME280;4604;48.616;9.548;2022-12-07T04:24:22;96894.09;;;2.92;100.00
9139;BME280;4604;48.616;9.548;2022-12-07T04:26:55;96905.84;;;2.99;100.00
9139;BME280;4604;48.616;9.548;2022-12-07T04:29:23;96910.22;;;2.98;100.00
9139;BME280;4604;48.616;9.548;2022-12-07T04:31:55;96914.50;;;2.99;100.00
9139;BME280;4604;48.616;9.548;2022-12-07T04:34:22;96912.91;;;2.97;100.00
9139;BME280;4604;48.616;9.548;2022-12-07T04:36:57;96911.53;;;2.91;100.00
9139;BME280;4604;48.616;9.548;2022-12-07T04:39:26;96915.06;;;2.90;100.00
9139;BME280;4604;48.616;9.548;2022-12-07T04:41:53;96902.88;;;2.91;100.00
9139;BME280;4604;48.616;9.548;2022-12-07T04:44:21;96900.53;;;2.86;100.00
9139;BME280;4604;48.616;9.548;2022-12-07T04:46:48;96868.22;;;2.60;100.00
9139;BME280;4604;48.616;9.548;2022-12-07T04:49:15;96899.03;;;2.82;100.00
9139;BME280;4604;48.616;9.548;2022-12-07T04:51:43;96899.41;;;2.76;100.00
9139;BME280;4604;48.616;9.548;2022-12-07T04:54:11;96900.16;;;2.78;100.00
9139;BME280;4604;48.616;9.548;2022-12-07T04:56:38;96903.13;;;2.72;100.00
9139;BME280;4604;48.616;9.548;2022-12-07T04:59:05;96896.34;;;2.69;100.00
9139;BME280;4604;48.616;9.548;2022-12-07T05:01:32;96905.34;;;2.64;100.00
9139;BME280;4604;48.616;9.548;2022-12-07T05:03:59;96895.00;;;2.62;100.00
9139;BME280;4604;48.616;9.548;2022-12-07T05:06:26;96904.03;;;2.56;100.00
9139;BME280;4604;48.616;9.548;2022-12-07T05:08:53;96898.34;;;2.50;100.00
9139;BME280;4604;48.616;9.548;2022-12-07T05:11:21;96891.25;;;2.38;100.00
9139;BME280;4604;48.616;9.548;2022-12-07T05:14:10;96897.47;;;2.35;100.00
9139;BME280;4604;48.616;9.548;2022-12-07T05:16:37;96900.53;;;2.27;100.00
9139;BME280;4604;48.616;9.548;2022-12-07T05:19:04;96900.13;;;2.19;100.00
9139;BME280;4604;48.616;9.548;2022-12-07T05:21:31;96885.47;;;2.02;100.00
9139;BME280;4604;48.616;9.548;2022-12-07T05:23:58;96863.03;;;1.85;100.00
9139;BME280;4604;48.616;9.548;2022-12-07T05:26:27;96895.97;;;2.01;100.00
9139;BME280;4604;48.616;9.548;2022-12-07T05:28:55;96893.88;;;1.91;100.00
9139;BME280;4604;48.616;9.548;2022-12-07T05:31:22;96877.31;;;1.78;100.00
9139;BME280;4604;48.616;9.548;2022-12-07T05:33:50;96892.75;;;1.81;100.00
9139;BME280;4604;48.616;9.548;2022-12-07T05:36:17;96850.91;;;1.54;100.00
9139;BME280;4604;48.616;9.548;2022-12-07T05:38:44;96894.25;;;1.69;100.00
9139;BME280;4604;48.616;9.548;2022-12-07T05:41:13;96887.47;;;1.67;100.00
9139;BME280;4604;48.616;9.548;2022-12-07T05:43:56;96876.81;;;1.56;100.00
9139;BME280;4604;48.616;9.548;2022-12-07T05:46:22;96893.34;;;1.55;100.00
9139;BME280;4604;48.616;9.548;2022-12-07T05:48:55;96853.94;;;1.31;100.00
9139;BME280;4604;48.616;9.548;2022-12-07T05:51:22;96897.78;;;1.53;100.00
9139;BME280;4604;48.616;9.548;2022-12-07T05:53:55;96888.22;;;1.53;100.00
9139;BME280;4604;48.616;9.548;2022-12-07T05:56:22;96854.63;;;1.34;100.00
9139;BME280;4604;48.616;9.548;2022-12-07T05:58:57;96875.06;;;1.56;100.00
9139;BME280;4604;48.616;9.548;2022-12-07T06:01:41;96865.31;;;1.44;100.00
9139;BME280;4604;48.616;9.548;2022-12-07T06:04:08;96884.13;;;1.49;100.00
9139;BME280;4604;48.616;9.548;2022-12-07T06:06:34;96882.78;;;1.42;100.00
9139;BME280;4604;48.616;9.548;2022-12-07T06:09:01;96887.22;;;1.40;100.00
9139;BME280;4604;48.616;9.548;2022-12-07T06:11:28;96881.91;;;1.41;100.00
9139;BME280;4604;48.616;9.548;2022-12-07T06:14:14;96873.81;;;1.47;100.00
9139;BME280;4604;48.616;9.548;2022-12-07T06:16:41;96868.84;;;1.43;100.00
9139;BME280;4604;48.616;9.548;2022-12-07T06:19:08;96868.19;;;1.39;100.00
9139;BME280;4604;48.616;9.548;2022-12-07T06:21:35;96880.19;;;1.42;100.00
9139;BME280;4604;48.616;9.548;2022-12-07T06:24:01;96878.50;;;1.41;100.00
9139;BME280;4604;48.616;9.548;2022-12-07T06:26:28;96869.03;;;1.40;100.00
9139;BME280;4604;48.616;9.548;2022-12-07T06:28:55;96880.78;;;1.47;100.00
9139;BME280;4604;48.616;9.548;2022-12-07T06:31:23;96884.19;;;1.47;100.00
9139;BME280;4604;48.616;9.548;2022-12-07T06:33:49;96870.88;;;1.38;100.00
9139;BME280;4604;48.616;9.548;2022-12-07T06:36:17;96887.06;;;1.43;100.00
9139;BME280;4604;48.616;9.548;2022-12-07T06:38:44;96890.59;;;1.42;100.00
9139;BME280;4604;48.616;9.548;2022-12-07T06:41:11;96893.91;;;1.44;100.00
9139;BME280;4604;48.616;9.548;2022-12-07T06:43:37;96868.69;;;1.30;100.00
9139;BME280;4604;48.616;9.548;2022-12-07T06:46:04;96880.84;;;1.30;100.00
9139;BME280;4604;48.616;9.548;2022-12-07T06:48:32;96893.50;;;1.36;100.00
9139;BME280;4604;48.616;9.548;2022-12-07T06:50:59;96892.31;;;1.41;100.00
9139;BME280;4604;48.616;9.548;2022-12-07T06:53:26;96892.69;;;1.35;100.00
9139;BME280;4604;48.616;9.548;2022-12-07T06:55:53;96898.81;;;1.34;100.00
9139;BME280;4604;48.616;9.548;2022-12-07T06:58:20;96915.13;;;1.36;100.00
9139;BME280;4604;48.616;9.548;2022-12-07T07:00:48;96911.94;;;1.31;100.00
9139;BME280;4604;48.616;9.548;2022-12-07T07:03:15;96923.81;;;1.37;100.00
9139;BME280;4604;48.616;9.548;2022-12-07T07:05:43;96929.56;;;1.26;100.00
9139;BME280;4604;48.616;9.548;2022-12-07T07:08:11;96928.72;;;1.25;100.00
9139;BME280;4604;48.616;9.548;2022-12-07T07:10:38;96926.06;;;1.27;100.00
9139;BME280;4604;48.616;9.548;2022-12-07T07:13:05;96922.53;;;1.28;100.00
9139;BME280;4604;48.616;9.548;2022-12-07T07:15:32;96935.34;;;1.31;100.00
9139;BME280;4604;48.616;9.548;2022-12-07T07:17:59;96873.03;;;0.98;100.00
9139;BME280;4604;48.616;9.548;2022-12-07T07:20:26;96876.22;;;1.03;100.00
9139;BME280;4604;48.616;9.548;2022-12-07T07:22:55;96931.59;;;1.37;100.00
9139;BME280;4604;48.616;9.548;2022-12-07T07:25:22;96945.91;;;1.44;100.00
9139;BME280;4604;48.616;9.548;2022-12-07T07:27:55;96944.19;;;1.44;100.00
9139;BME280;4604;48.616;9.548;2022-12-07T07:30:22;96951.75;;;1.49;100.00
9139;BME280;4604;48.616;9.548;2022-12-07T07:32:56;96941.25;;;1.50;100.00
9139;BME280;4604;48.616;9.548;2022-12-07T07:35:23;96927.41;;;1.50;100.00
9139;BME280;4604;48.616;9.548;2022-12-07T07:37:57;96939.91;;;1.59;100.00
9139;BME280;4604;48.616;9.548;2022-12-07T07:40:25;96936.56;;;1.57;100.00
9139;BME280;4604;48.616;9.548;2022-12-07T07:42:53;96932.94;;;1.60;100.00
9139;BME280;4604;48.616;9.548;2022-12-07T07:45:22;96948.88;;;1.69;100.00
9139;BME280;4604;48.616;9.548;2022-12-07T07:47:52;96940.25;;;1.69;100.00
9139;BME280;4604;48.616;9.548;2022-12-07T07:50:19;96934.59;;;1.61;100.00
9139;BME280;4604;48.616;9.548;2022-12-07T07:52:46;96945.34;;;1.70;100.00
9139;BME280;4604;48.616;9.548;2022-12-07T07:55:15;96952.81;;;1.77;100.00
9139;BME280;4604;48.616;9.548;2022-12-07T07:57:42;96955.06;;;1.83;100.00
9139;BME280;4604;48.616;9.548;2022-12-07T08:00:11;96952.34;;;1.86;100.00
9139;BME280;4604;48.616;9.548;2022-12-07T08:02:39;96959.03;;;1.90;100.00
9139;BME280;4604;48.616;9.548;2022-12-07T08:05:07;96962.31;;;1.93;100.00
9139;BME280;4604;48.616;9.548;2022-12-07T08:07:34;96969.63;;;2.03;100.00
9139;BME280;4604;48.616;9.548;2022-12-07T08:10:00;96972.53;;;2.12;100.00
9139;BME280;4604;48.616;9.548;2022-12-07T08:12:28;96948.09;;;1.99;100.00
9139;BME280;4604;48.616;9.548;2022-12-07T08:14:55;96974.88;;;2.17;100.00
9139;BME280;4604;48.616;9.548;2022-12-07T08:17:22;96974.78;;;2.19;100.00
9139;BME280;4604;48.616;9.548;2022-12-07T08:19:49;96977.97;;;2.24;100.00
9139;BME280;4604;48.616;9.548;2022-12-07T08:22:16;96974.47;;;2.25;100.00
9139;BME280;4604;48.616;9.548;2022-12-07T08:24:42;96974.09;;;2.31;100.00
9139;BME280;4604;48.616;9.548;2022-12-07T08:27:14;96972.25;;;2.33;100.00
9139;BME280;4604;48.616;9.548;2022-12-07T08:29:42;96966.78;;;2.38;100.00
9139;BME280;4604;48.616;9.548;2022-12-07T08:32:09;96978.59;;;2.43;100.00
9139;BME280;4604;48.616;9.548;2022-12-07T08:34:36;96979.34;;;2.45;100.00
9139;BME280;4604;48.616;9.548;2022-12-07T08:37:03;96972.03;;;2.52;100.00
9139;BME280;4604;48.616;9.548;2022-12-07T08:39:30;96978.56;;;2.59;100.00
9139;BME280;4604;48.616;9.548;2022-12-07T08:41:56;96973.94;;;2.64;100.00
9139;BME280;4604;48.616;9.548;2022-12-07T08:44:23;96970.50;;;2.64;100.00
9139;BME280;4604;48.616;9.548;2022-12-07T08:46:59;96973.75;;;2.67;100.00
9139;BME280;4604;48.616;9.548;2022-12-07T08:49:31;96943.13;;;2.56;100.00
9139;BME280;4604;48.616;9.548;2022-12-07T08:51:59;96966.97;;;2.79;100.00
9139;BME280;4604;48.616;9.548;2022-12-07T08:54:28;96960.38;;;2.73;100.00
9139;BME280;4604;48.616;9.548;2022-12-07T08:56:55;96981.91;;;2.91;100.00
9139;BME280;4604;48.616;9.548;2022-12-07T08:59:23;96955.34;;;2.85;100.00
9139;BME280;4604;48.616;9.548;2022-12-07T09:01:58;96973.63;;;2.99;100.00
9139;BME280;4604;48.616;9.548;2022-12-07T09:04:24;96974.28;;;3.03;100.00
9139;BME280;4604;48.616;9.548;2022-12-07T09:06:54;96968.97;;;3.04;100.00
9139;BME280;4604;48.616;9.548;2022-12-07T09:09:21;96959.19;;;3.08;100.00
9139;BME280;4604;48.616;9.548;2022-12-07T09:11:48;96959.97;;;3.10;100.00
9139;BME280;4604;48.616;9.548;2022-12-07T09:14:14;96952.03;;;3.11;100.00
9139;BME280;4604;48.616;9.548;2022-12-07T09:16:42;96958.34;;;3.21;100.00
9139;BME280;4604;48.616;9.548;2022-12-07T09:19:10;96963.84;;;3.31;100.00
9139;BME280;4604;48.616;9.548;2022-12-07T09:21:37;96960.03;;;3.37;100.00
9139;BME280;4604;48.616;9.548;2022-12-07T09:24:04;96955.53;;;3.39;100.00
9139;BME280;4604;48.616;9.548;2022-12-07T09:26:31;96959.38;;;3.48;100.00
9139;BME280;4604;48.616;9.548;2022-12-07T09:28:58;96967.56;;;3.56;100.00
9139;BME280;4604;48.616;9.548;2022-12-07T09:31:25;96960.84;;;3.66;100.00
9139;BME280;4604;48.616;9.548;2022-12-07T09:33:55;96967.25;;;3.75;100.00
9139;BME280;4604;48.616;9.548;2022-12-07T09:36:24;96958.78;;;3.85;100.00
9139;BME280;4604;48.616;9.548;2022-12-07T09:38:51;96962.84;;;3.90;100.00
9139;BME280;4604;48.616;9.548;2022-12-07T09:41:18;96965.06;;;3.96;100.00
9139;BME280;4604;48.616;9.548;2022-12-07T09:43:45;96951.91;;;3.97;96.60
9139;BME280;4604;48.616;9.548;2022-12-07T09:46:14;96958.31;;;4.06;97.34
9139;BME280;4604;48.616;9.548;2022-12-07T09:48:43;96931.22;;;3.94;93.85
9139;BME280;4604;48.616;9.548;2022-12-07T09:51:14;96937.09;;;3.98;87.59
9139;BME280;4604;48.616;9.548;2022-12-07T09:53:45;96947.84;;;3.93;90.37
9139;BME280;4604;48.616;9.548;2022-12-07T09:56:12;96943.69;;;4.03;92.14
9139;BME280;4604;48.616;9.548;2022-12-07T09:58:40;96925.09;;;3.95;92.46
9139;BME280;4604;48.616;9.548;2022-12-07T10:01:11;96937.69;;;4.16;91.90
9139;BME280;4604;48.616;9.548;2022-12-07T10:03:41;96932.50;;;4.28;92.16
9139;BME280;4604;48.616;9.548;2022-12-07T10:06:11;96937.63;;;4.30;85.89
9139;BME280;4604;48.616;9.548;2022-12-07T10:08:39;96937.13;;;4.38;83.67
9139;BME280;4604;48.616;9.548;2022-12-07T10:11:07;96941.03;;;4.18;82.01
9139;BME280;4604;48.616;9.548;2022-12-07T10:13:37;96922.56;;;4.21;82.81
9139;BME280;4604;48.616;9.548;2022-12-07T10:16:06;96926.09;;;4.20;80.74
9139;BME280;4604;48.616;9.548;2022-12-07T10:18:35;96925.69;;;4.26;79.01
9139;BME280;4604;48.616;9.548;2022-12-07T10:21:11;96931.63;;;4.15;77.44
9139;BME280;4604;48.616;9.548;2022-12-07T10:23:40;96931.19;;;4.08;75.44
9139;BME280;4604;48.616;9.548;2022-12-07T10:26:26;96923.38;;;4.21;76.92
9139;BME280;4604;48.616;9.548;2022-12-07T10:28:54;96923.72;;;4.29;78.14
9139;BME280;4604;48.616;9.548;2022-12-07T10:31:25;96898.13;;;4.22;76.94
9139;BME280;4604;48.616;9.548;2022-12-07T10:33:54;96911.94;;;4.37;77.72
9139;BME280;4604;48.616;9.548;2022-12-07T10:36:24;96914.44;;;4.38;74.81
9139;BME280;4604;48.616;9.548;2022-12-07T10:38:52;96918.75;;;4.39;74.44
9139;BME280;4604;48.616;9.548;2022-12-07T10:41:21;96919.13;;;4.33;75.25
9139;BME280;4604;48.616;9.548;2022-12-07T10:43:50;96905.97;;;4.35;76.67
9139;BME280;4604;48.616;9.548;2022-12-07T10:46:38;96908.16;;;4.41;73.11
9139;BME280;4604;48.616;9.548;2022-12-07T10:49:30;96908.34;;;4.25;70.65
9139;BME280;4604;48.616;9.548;2022-12-07T10:52:08;96920.59;;;4.24;73.50
9139;BME280;4604;48.616;9.548;2022-12-07T10:54:47;96865.06;;;4.08;74.42
9139;BME280;4604;48.616;9.548;2022-12-07T10:57:32;96900.41;;;4.26;71.41
9139;BME280;4604;48.616;9.548;2022-12-07T11:00:12;96903.00;;;4.26;71.49
9139;BME280;4604;48.616;9.548;2022-12-07T11:02:59;96890.28;;;4.22;72.06
9139;BME280;4604;48.616;9.548;2022-12-07T11:05:38;96891.81;;;4.12;73.32
9139;BME280;4604;48.616;9.548;2022-12-07T11:08:14;96860.66;;;4.08;72.62
9139;BME280;4604;48.616;9.548;2022-12-07T11:10:50;96888.59;;;4.21;73.68
9139;BME280;4604;48.616;9.548;2022-12-07T11:13:27;96852.69;;;3.97;72.46
9139;BME280;4604;48.616;9.548;2022-12-07T11:16:19;96883.47;;;4.19;74.22
9139;BME280;4604;48.616;9.548;2022-12-07T11:19:09;96879.59;;;4.12;75.74
9139;BME280;4604;48.616;9.548;2022-12-07T11:21:55;96877.09;;;4.23;75.43
9139;BME280;4604;48.616;9.548;2022-12-07T11:24:27;96877.63;;;4.28;75.57
9139;BME280;4604;48.616;9.548;2022-12-07T11:27:09;96875.84;;;4.29;74.79
9139;BME280;4604;48.616;9.548;2022-12-07T11:29:49;96871.38;;;4.31;75.23
9139;BME280;4604;48.616;9.548;2022-12-07T11:32:22;96873.47;;;4.39;75.27
9139;BME280;4604;48.616;9.548;2022-12-07T11:35:01;96834.13;;;4.02;73.23
9139;BME280;4604;48.616;9.548;2022-12-07T11:37:33;96864.66;;;4.14;75.12
9139;BME280;4604;48.616;9.548;2022-12-07T11:40:08;96857.56;;;4.29;75.09
9139;BME280;4604;48.616;9.548;2022-12-07T11:42:42;96852.13;;;4.19;74.71
9139;BME280;4604;48.616;9.548;2022-12-07T11:45:17;96823.13;;;3.97;73.72
9139;BME280;4604;48.616;9.548;2022-12-07T11:47:51;96837.16;;;3.96;74.66
9139;BME280;4604;48.616;9.548;2022-12-07T11:50:32;96829.09;;;3.99;75.15
9139;BME280;4604;48.616;9.548;2022-12-07T11:53:03;96847.00;;;4.18;74.92
9139;BME280;4604;48.616;9.548;2022-12-07T11:55:41;96848.44;;;4.09;75.17
9139;BME280;4604;48.616;9.548;2022-12-07T11:58:22;96847.28;;;4.00;75.45
9139;BME280;4604;48.616;9.548;2022-12-07T12:00:55;96825.00;;;3.95;76.58
9139;BME280;4604;48.616;9.548;2022-12-07T12:03:30;96820.22;;;4.01;76.84
9139;BME280;4604;48.616;9.548;2022-12-07T12:06:00;96832.25;;;4.17;75.74
9139;BME280;4604;48.616;9.548;2022-12-07T12:08:30;96826.66;;;4.23;76.56
9139;BME280;4604;48.616;9.548;2022-12-07T12:11:05;96835.91;;;4.14;77.14
9139;BME280;4604;48.616;9.548;2022-12-07T12:14:00;96830.09;;;4.23;77.29
9139;BME280;4604;48.616;9.548;2022-12-07T12:16:48;96823.50;;;4.31;77.48
9139;BME280;4604;48.616;9.548;2022-12-07T12:19:24;96826.03;;;4.32;77.62
9139;BME280;4604;48.616;9.548;2022-12-07T12:21:55;96816.84;;;4.39;77.72
9139;BME280;4604;48.616;9.548;2022-12-07T12:24:25;96817.38;;;4.44;77.49
9139;BME280;4604;48.616;9.548;2022-12-07T12:26:58;96818.50;;;4.27;77.91
9139;BME280;4604;48.616;9.548;2022-12-07T12:29:32;96817.03;;;4.36;78.91
9139;BME280;4604;48.616;9.548;2022-12-07T12:32:13;96807.41;;;4.24;78.59
9139;BME280;4604;48.616;9.548;2022-12-07T12:34:56;96819.66;;;4.36;77.68
9139;BME280;4604;48.616;9.548;2022-12-07T12:37:41;96806.59;;;4.36;77.83
9139;BME280;4604;48.616;9.548;2022-12-07T12:40:42;96809.22;;;4.49;77.91
9139;BME280;4604;48.616;9.548;2022-12-07T12:43:50;96812.44;;;4.53;77.42
9139;BME280;4604;48.616;9.548;2022-12-07T12:46:48;96802.72;;;4.55;77.63
9139;BME280;4604;48.616;9.548;2022-12-07T12:55:19;96802.72;;;4.67;79.48
9139;BME280;4604;48.616;9.548;2022-12-07T12:57:52;96796.88;;;4.64;78.19
9139;BME280;4604;48.616;9.548;2022-12-07T13:00:39;96786.00;;;4.44;79.48
9139;BME280;4604;48.616;9.548;2022-12-07T13:03:21;96783.38;;;4.70;81.57
9139;BME280;4604;48.616;9.548;2022-12-07T13:06:19;96786.50;;;4.62;79.27
9139;BME280;4604;48.616;9.548;2022-12-07T13:08:46;96776.19;;;4.48;79.45
9139;BME280;4604;48.616;9.548;2022-12-07T13:11:19;96747.13;;;4.40;79.14
9139;BME280;4604;48.616;9.548;2022-12-07T13:13:46;96765.41;;;4.53;78.31
9139;BME280;4604;48.616;9.548;2022-12-07T13:22:43;96770.66;;;4.40;81.82
9139;BME280;4604;48.616;9.548;2022-12-07T13:25:12;96768.66;;;4.18;82.59
9139;BME280;4604;48.616;9.548;2022-12-07T13:27:50;96769.41;;;4.20;83.51
9139;BME280;4604;48.616;9.548;2022-12-07T13:30:22;96750.34;;;3.92;84.60
9139;BME280;4604;48.616;9.548;2022-12-07T13:32:52;96768.09;;;4.00;85.39
9139;BME280;4604;48.616;9.548;2022-12-07T13:35:33;96766.44;;;3.99;85.15
9139;BME280;4604;48.616;9.548;2022-12-07T13:38:15;96768.00;;;4.01;85.27
9139;BME280;4604;48.616;9.548;2022-12-07T13:40:59;96758.09;;;3.94;86.22
9139;BME280;4604;48.616;9.548;2022-12-07T13:43:26;96734.06;;;3.89;86.41
9139;BME280;4604;48.616;9.548;2022-12-07T13:45:56;96768.09;;;4.00;87.34
9139;BME280;4604;48.616;9.548;2022-12-07T13:48:29;96770.72;;;4.00;88.19
9139;BME280;4604;48.616;9.548;2022-12-07T13:50:58;96770.63;;;4.01;88.11
9139;BME280;4604;48.616;9.548;2022-12-07T13:53:28;96764.66;;;3.99;87.42
9139;BME280;4604;48.616;9.548;2022-12-07T13:55:56;96756.59;;;3.90;88.17
9139;BME280;4604;48.616;9.548;2022-12-07T13:58:23;96771.34;;;3.91;89.40